createdAt,value
2022-09-15T03:10:41.040Z,19.90
2022-09-15T03:13:43.505Z,19.90
2022-09-15T03:16:45.664Z,19.40
2022-09-15T03:19:48.090Z,19.39
2022-09-15T03:22:50.603Z,19.36
2022-09-15T03:25:52.906Z,19.36
2022-09-15T03:28:55.017Z,19.23
2022-09-15T03:31:57.645Z,19.21
2022-09-15T03:35:00.063Z,19.26
2022-09-15T03:38:02.417Z,19.17
2022-09-15T03:41:08.289Z,19.14
2022-09-15T03:44:10.599Z,19.15
2022-09-15T03:47:13.102Z,19.11
2022-09-15T03:50:15.470Z,19.11
2022-09-15T03:53:18.313Z,19.03
2022-09-15T03:56:27.399Z,19.08
2022-09-15T03:59:29.437Z,19.21
2022-09-15T04:02:31.766Z,19.13
2022-09-15T04:05:35.277Z,19.04
2022-09-15T04:08:37.699Z,19.00
2022-09-15T04:11:40.948Z,18.96
2022-09-15T04:14:43.279Z,18.95
2022-09-15T04:17:46.150Z,18.95
2022-09-15T04:20:48.211Z,19.06
2022-09-15T04:23:51.713Z,19.07
2022-09-15T04:26:54.078Z,19.10
2022-09-15T04:29:56.477Z,19.19
2022-09-15T04:32:58.531Z,19.24
2022-09-15T04:36:06.165Z,19.30
2022-09-15T04:39:08.233Z,19.36
2022-09-15T04:42:10.854Z,19.38
2022-09-15T04:45:12.904Z,19.43
2022-09-15T04:48:15.226Z,19.43
2022-09-15T04:51:20.405Z,19.53
2022-09-15T04:54:23.313Z,19.62
2022-09-15T04:57:25.514Z,19.70
2022-09-15T05:00:29.390Z,19.71
2022-09-15T05:03:31.444Z,19.80
2022-09-15T05:06:35.830Z,19.77
2022-09-15T05:09:38.332Z,19.84
2022-09-15T05:12:41.421Z,19.88
2022-09-15T05:15:43.470Z,19.79
2022-09-15T05:18:47.315Z,19.80
2022-09-15T05:21:49.406Z,19.79
2022-09-15T05:24:52.001Z,19.79
2022-09-15T05:27:54.065Z,19.79
2022-09-15T05:30:56.456Z,19.74
2022-09-15T05:34:00.855Z,19.73
2022-09-15T05:37:05.174Z,19.72
2022-09-15T05:40:08.762Z,19.72
2022-09-15T05:43:11.297Z,19.62
2022-09-15T05:46:14.699Z,19.66
2022-09-15T05:49:17.213Z,19.66
2022-09-15T05:52:19.597Z,19.69
2022-09-15T05:55:22.956Z,19.76
2022-09-15T05:58:26.143Z,19.73
2022-09-15T06:01:29.857Z,19.82
2022-09-15T06:04:32.296Z,19.91
2022-09-15T06:07:34.379Z,20.00
2022-09-15T06:10:36.891Z,20.01
2022-09-15T06:13:40.103Z,20.01
2022-09-15T06:16:42.490Z,20.07
2022-09-15T06:19:46.897Z,20.19
2022-09-15T06:22:49.491Z,20.25
2022-09-15T06:25:51.586Z,20.22
2022-09-15T06:28:56.174Z,20.20
2022-09-15T06:32:02.730Z,20.34
2022-09-15T06:35:08.621Z,20.36
2022-09-15T06:38:11.523Z,20.37
2022-09-15T06:41:14.169Z,20.47
2022-09-15T06:44:16.247Z,20.57
2022-09-15T06:47:18.611Z,20.60
2022-09-15T06:50:21.663Z,20.61
2022-09-15T06:53:24.234Z,20.65
2022-09-15T06:56:26.313Z,20.55
2022-09-15T06:59:28.715Z,20.48
2022-09-15T07:02:31.285Z,20.60
2022-09-15T07:05:33.664Z,20.68
2022-09-15T07:08:35.715Z,20.73
2022-09-15T07:11:38.030Z,20.74
2022-09-15T07:14:40.101Z,20.88
2022-09-15T07:17:42.441Z,20.82
2022-09-15T07:20:44.686Z,20.85
2022-09-15T07:23:48.418Z,20.95
2022-09-15T07:26:50.556Z,21.35
2022-09-15T07:29:52.950Z,21.76
2022-09-15T07:32:55.314Z,22.32
2022-09-15T07:35:57.713Z,22.53
2022-09-15T07:38:59.752Z,22.96
2022-09-15T07:42:02.281Z,23.35
2022-09-15T07:45:05.327Z,23.12
2022-09-15T07:48:07.817Z,23.12
2022-09-15T07:51:09.972Z,22.88
2022-09-15T07:54:12.458Z,22.75
2022-09-15T07:57:14.498Z,22.77
2022-09-15T08:00:17.487Z,22.88
2022-09-15T08:03:19.825Z,22.95
2022-09-15T08:06:24.070Z,23.11
2022-09-15T08:09:26.422Z,23.09
2022-09-15T08:12:30.631Z,23.13
2022-09-15T08:15:36.833Z,23.33
2022-09-15T08:18:39.826Z,23.91
2022-09-15T08:21:42.539Z,24.48
2022-09-15T08:24:44.916Z,24.45
2022-09-15T08:27:47.227Z,24.54
2022-09-15T08:30:50.574Z,24.48
2022-09-15T08:33:54.941Z,24.61
2022-09-15T08:36:57.122Z,24.95
2022-09-15T08:39:59.464Z,25.26
2022-09-15T08:43:11.916Z,25.22
2022-09-15T08:46:20.160Z,24.94
2022-09-15T08:49:47.810Z,25.00
2022-09-15T08:52:59.127Z,24.89
2022-09-15T08:56:09.373Z,25.05
2022-09-15T08:59:14.817Z,24.99
2022-09-15T09:02:38.917Z,25.08
2022-09-15T09:05:59.375Z,25.49
2022-09-15T09:09:23.426Z,25.65
2022-09-15T09:12:43.859Z,25.90
2022-09-15T09:16:24.484Z,26.14
2022-09-15T09:19:53.258Z,26.14
2022-09-15T09:22:56.353Z,26.33
2022-09-15T09:26:01.987Z,26.48
2022-09-15T09:29:26.853Z,26.72
2022-09-15T09:33:16.977Z,26.36
2022-09-15T09:36:21.562Z,26.46
2022-09-15T09:39:25.126Z,26.72
2022-09-15T09:42:31.686Z,27.00
2022-09-15T09:45:34.399Z,27.42
2022-09-15T09:48:36.660Z,27.72
2022-09-15T09:51:52.167Z,28.36
2022-09-15T09:55:04.020Z,28.22
2022-09-15T09:58:12.938Z,28.40
2022-09-15T10:01:17.661Z,28.36
2022-09-15T10:04:21.020Z,28.08
2022-09-15T10:07:26.599Z,27.91
2022-09-15T10:10:32.168Z,27.52
2022-09-15T10:13:35.955Z,27.49
2022-09-15T10:16:38.336Z,27.34
2022-09-15T10:19:57.766Z,27.44
2022-09-15T10:23:18.331Z,27.47
2022-09-15T10:26:29.375Z,27.52
2022-09-15T10:29:39.089Z,27.41
2022-09-15T10:32:42.718Z,27.68
2022-09-15T10:35:45.418Z,27.72
2022-09-15T10:38:56.527Z,27.80
2022-09-15T10:42:36.556Z,28.24
2022-09-15T10:45:40.473Z,28.35
2022-09-15T10:49:04.436Z,28.62
2022-09-15T10:52:58.067Z,28.09
2022-09-15T10:56:25.839Z,27.54
2022-09-15T10:59:54.511Z,27.79
2022-09-15T11:03:23.369Z,28.27
2022-09-15T11:06:45.710Z,27.93
2022-09-15T11:10:00.929Z,28.00
2022-09-15T11:13:40.806Z,27.72
2022-09-15T11:17:06.863Z,27.78
2022-09-15T11:20:25.251Z,27.27
2022-09-15T11:23:38.698Z,27.41
2022-09-15T11:26:52.468Z,26.96
2022-09-15T11:30:01.181Z,26.42
2022-09-15T11:33:06.534Z,26.14
2022-09-15T11:36:18.034Z,25.84
2022-09-15T11:39:24.020Z,25.69
2022-09-15T11:42:40.943Z,25.67
2022-09-15T11:45:49.686Z,25.48
2022-09-15T11:49:01.850Z,25.41
2022-09-15T11:52:25.364Z,25.58
2022-09-15T11:55:51.536Z,25.71
2022-09-15T11:59:19.767Z,25.87
2022-09-15T12:02:25.692Z,26.37
2022-09-15T12:05:35.141Z,26.57
2022-09-15T12:08:47.586Z,26.34
2022-09-15T12:11:54.977Z,25.94
2022-09-15T12:14:58.263Z,25.70
2022-09-15T12:18:34.582Z,25.33
2022-09-15T12:21:43.939Z,25.00
2022-09-15T12:25:15.042Z,24.80
2022-09-15T12:28:22.972Z,24.75
2022-09-15T12:31:39.782Z,24.80
2022-09-15T12:35:13.794Z,25.00
2022-09-15T12:38:16.390Z,25.19
2022-09-15T12:41:19.198Z,25.34
2022-09-15T12:44:32.860Z,25.50
2022-09-15T12:47:57.509Z,25.63
2022-09-15T12:51:03.078Z,25.41
2022-09-15T12:54:07.414Z,25.44
2022-09-15T12:57:25.351Z,25.33
2022-09-15T13:00:34.670Z,25.00
2022-09-15T13:07:30.058Z,23.19
2022-09-15T13:10:39.425Z,19.02
2022-09-15T13:13:48.209Z,17.35
2022-09-15T13:17:03.936Z,16.99
2022-09-15T13:20:17.931Z,16.87
2022-09-15T13:23:25.037Z,16.58
2022-09-15T13:26:29.103Z,16.79
2022-09-15T13:29:33.052Z,16.56
2022-09-15T13:32:52.467Z,16.47
2022-09-15T13:36:00.749Z,16.61
2022-09-15T13:39:24.841Z,16.89
2022-09-15T13:42:36.145Z,16.95
2022-09-15T13:46:04.238Z,17.18
2022-09-15T13:49:38.412Z,17.34
2022-09-15T13:53:02.067Z,17.54
2022-09-15T13:56:08.920Z,17.65
2022-09-15T13:59:24.086Z,17.71
2022-09-15T14:02:27.263Z,17.87
2022-09-15T14:05:34.076Z,17.73
2022-09-15T14:08:38.062Z,17.96
2022-09-15T14:11:42.831Z,18.21
2022-09-15T14:14:58.540Z,18.30
2022-09-15T14:18:00.884Z,18.24
2022-09-15T14:21:06.072Z,18.27
2022-09-15T14:24:21.396Z,18.09
2022-09-15T14:27:29.079Z,17.96
2022-09-15T14:30:32.051Z,17.85
2022-09-15T14:33:39.833Z,17.92
2022-09-15T14:36:42.226Z,18.11
2022-09-15T14:39:56.458Z,18.04
2022-09-15T14:42:59.272Z,18.00
2022-09-15T14:46:17.899Z,18.09
2022-09-15T14:49:21.000Z,17.95
2022-09-15T14:52:30.605Z,17.92
2022-09-15T14:55:52.232Z,17.92
2022-09-15T14:58:57.962Z,17.81
2022-09-15T15:02:04.656Z,17.88
2022-09-15T15:05:15.687Z,17.73
2022-09-15T15:08:42.356Z,17.51
2022-09-15T15:11:44.488Z,17.44
2022-09-15T15:14:47.028Z,17.46
2022-09-15T15:17:51.625Z,17.46
2022-09-15T15:20:53.938Z,17.62
2022-09-15T15:23:56.368Z,17.76
